CAR5 weather

Arthur (Arthur South)
Ontario, Canada

Public forecast

Using degrees Celsius for public forecast. Weather courtesy of forecast.io.

Closest aviation weather report (METAR) to Arthur (Arthur South)

Closest report is Waterloo Airport, 19.5 nm (36.1 km) S. Retrieved 2019/10/22 17:00 UTC (31 minutes ago):

CYKF 221700Z AUTO 18011G19KT 9SM FEW046 15/10 A2965 RMK SLP042 DENSITY ALT 1600FT

Closest aviation forecast (TAF) to Arthur (Arthur South)

Closest forecast is Waterloo Airport, 19.5 nm (36.1 km) S. Retrieved 2019/10/22 14:39 UTC (3 hours ago):

TAF CYKF 221338Z 2214/2302 17012G22KT P6SM -RA SCT008 OVC015 TEMPO 2214/2216 5SM -RA BR OVC006 FM221600 20015G25KT P6SM -SHRA BKN015 OVC025 TEMPO 2216/2218 BKN007 OVC015 FM221800 22015G28KT P6SM BKN025 BKN050 TEMPO 2218/2222 P6SM -SHRA BKN015 OVC040 FM222200 23012G22KT P6SM BKN020 BKN040 TEMPO 2222/2302 BKN025 BKN040 BECMG 2223/2301 24012KT RMK FCST BASED ON AUTO OBS NXT FCST BY 222000Z